ICT,Max TemperatureF,Mean TemperatureF,Min TemperatureF,Max Dew PointF,MeanDew PointF,Min DewpointF,Max Humidity, Mean Humidity, Min Humidity, Max Sea Level PressureIn, Mean Sea Level PressureIn, Min Sea Level PressureIn, Max VisibilityMiles, Mean VisibilityMiles, Min VisibilityMiles, Max Wind SpeedMPH, Mean Wind SpeedMPH, Max Gust SpeedMPH,PrecipitationIn, CloudCover, Events, WindDirDegrees
2013-2-1,89,76,62,69,62,54,100,67,31,30.12,29.99,29.83,7,5,0,6,2,,0.00,4,Fog,185
2013-2-2,81,72,64,70,65,61,100,78,54,30.09,29.99,29.92,7,6,4,15,2,,0.00,6,,200
2013-2-3,87,74,62,68,62,57,100,64,35,30.04,29.95,29.86,7,5,0,5,1,,0.00,3,Fog,351
2013-2-4,89,76,64,70,65,59,100,67,38,30.04,29.97,29.89,7,5,2,6,2,,0.00,1,,105
2013-2-5,93,79,65,72,65,59,100,65,36,30.06,29.96,29.89,7,6,2,6,2,,0.00,2,,20
2013-2-6,95,78,62,69,64,57,100,60,32,30.01,29.90,29.77,7,5,1,4,2,,0.00,2,,359
2013-2-7,96,78,60,67,60,50,100,56,23,29.92,29.82,29.74,7,4,0,5,2,,0.00,1,,180
2013-2-8,96,76,57,64,57,46,100,52,18,29.92,29.83,29.74,7,6,4,5,2,,0.00,1,,230
2013-2-9,93,76,59,70,62,54,100,61,25,29.95,29.88,29.80,7,6,4,6,2,,0.00,4,,193
2013-2-10,93,80,67,71,66,59,100,64,34,29.98,29.89,29.77,7,5,2,4,2,,0.00,3,,190
2013-2-11,93,80,68,72,67,63,100,62,38,29.95,29.86,29.77,7,5,2,7,2,,0.00,6,,157
2013-2-12,95,82,68,73,66,61,91,50,36,29.95,29.84,29.77,6,5,2,5,1,,0.00,1,,190
2013-2-13,96,80,68,72,63,55,100,53,31,29.98,29.89,29.80,7,5,1,9,4,,0.00,1,,197
2013-2-14,92,78,64,70,63,57,100,58,34,29.98,29.87,29.77,7,6,2,5,1,,0.00,5,,53
2013-2-15,96,81,66,70,64,55,100,57,28,29.95,29.85,29.74,7,4,1,6,2,,0.00,2,,25
2013-2-16,96,82,67,70,64,57,100,51,28,29.95,29.82,29.74,6,4,2,7,2,,0.00,1,,229
2013-2-17,96,81,66,71,64,59,100,55,32,29.92,29.80,29.68,7,5,2,5,2,,0.00,6,,131
2013-2-18,94,82,69,72,66,61,100,63,36,29.86,29.78,29.71,6,4,2,8,2,,T,5,,38
2013-2-19,98,82,68,70,64,55,100,54,26,29.89,29.78,29.68,6,5,2,5,2,,0.00,1,,240
2013-2-20,94,80,66,71,66,61,100,60,38,29.92,29.82,29.74,6,5,2,7,2,,T,5,Rain-Thunderstorm,305
2013-2-21,96,78,69,72,67,63,100,62,43,29.95,29.86,29.79,6,5,2,4,2,,0.00,6,,-1
2013-2-22,77,73,69,72,70,68,100,86,74,30.06,29.97,29.91,6,4,2,5,2,,0.00,8,Rain,20
2013-2-23,90,78,67,70,64,59,100,61,38,30.06,29.97,29.89,7,5,1,6,2,,0.00,4,,0
2013-2-24,91,76,62,68,60,55,100,54,33,30.04,29.93,29.83,6,6,2,5,1,,0.00,1,,52
2013-2-25,95,80,64,68,62,54,100,57,26,30.01,29.90,29.80,7,4,2,5,2,,0.00,1,,220
2013-2-26,96,80,64,70,65,61,100,62,30,29.95,29.86,29.75,7,5,2,2,1,,0.00,1,,340
2013-2-27,99,82,66,72,66,61,100,60,29,29.89,29.80,29.71,7,5,1,4,1,,0.00,2,,352
2013-2-28,98,83,68,74,68,64,100,59,34,29.86,29.76,29.68,6,4,2,4,2,,0.00,2,,18